sensor_id;sensor_type;location;lat;lon;timestamp;temperature;humidity
44509;DHT22;30214;52.246;14.408;2023-08-06T00:01:41;16.70;99.90
44509;DHT22;30214;52.246;14.408;2023-08-06T00:04:10;16.70;99.90
44509;DHT22;30214;52.246;14.408;2023-08-06T00:06:39;16.70;99.90
44509;DHT22;30214;52.246;14.408;2023-08-06T00:09:07;16.80;99.90
44509;DHT22;30214;52.246;14.408;2023-08-06T00:11:43;16.80;99.90
44509;DHT22;30214;52.246;14.408;2023-08-06T00:14:14;16.80;99.90
44509;DHT22;30214;52.246;14.408;2023-08-06T00:16:47;16.70;99.90
44509;DHT22;30214;52.246;14.408;2023-08-06T00:19:19;16.60;99.90
44509;DHT22;30214;52.246;14.408;2023-08-06T00:21:48;16.60;99.90
44509;DHT22;30214;52.246;14.408;2023-08-06T00:24:16;16.70;99.90
44509;DHT22;30214;52.246;14.408;2023-08-06T00:26:45;16.60;99.90
44509;DHT22;30214;52.246;14.408;2023-08-06T00:29:18;16.60;99.90
44509;DHT22;30214;52.246;14.408;2023-08-06T00:31:49;16.50;99.90
44509;DHT22;30214;52.246;14.408;2023-08-06T00:34:18;16.40;99.90
44509;DHT22;30214;52.246;14.408;2023-08-06T00:36:49;16.40;99.90
44509;DHT22;30214;52.246;14.408;2023-08-06T00:39:20;16.30;99.90
44509;DHT22;30214;52.246;14.408;2023-08-06T00:41:51;16.30;99.90
44509;DHT22;30214;52.246;14.408;2023-08-06T00:44:19;16.40;99.90
44509;DHT22;30214;52.246;14.408;2023-08-06T00:46:50;16.40;99.90
44509;DHT22;30214;52.246;14.408;2023-08-06T00:49:19;16.40;99.90
44509;DHT22;30214;52.246;14.408;2023-08-06T00:51:49;16.50;99.90
44509;DHT22;30214;52.246;14.408;2023-08-06T00:54:18;16.50;99.90
44509;DHT22;30214;52.246;14.408;2023-08-06T00:56:49;16.50;99.90
44509;DHT22;30214;52.246;14.408;2023-08-06T00:59:18;16.50;99.90
44509;DHT22;30214;52.246;14.408;2023-08-06T01:01:49;16.50;99.90
44509;DHT22;30214;52.246;14.408;2023-08-06T01:04:17;16.40;99.90
44509;DHT22;30214;52.246;14.408;2023-08-06T01:06:49;16.50;99.90
44509;DHT22;30214;52.246;14.408;2023-08-06T01:09:35;16.60;99.90
44509;DHT22;30214;52.246;14.408;2023-08-06T01:12:18;16.70;99.90
44509;DHT22;30214;52.246;14.408;2023-08-06T01:14:54;16.70;99.90
44509;DHT22;30214;52.246;14.408;2023-08-06T01:17:26;16.70;99.90
44509;DHT22;30214;52.246;14.408;2023-08-06T01:19:55;16.80;99.90
44509;DHT22;30214;52.246;14.408;2023-08-06T01:22:26;16.80;99.90
44509;DHT22;30214;52.246;14.408;2023-08-06T01:24:55;16.80;99.90
44509;DHT22;30214;52.246;14.408;2023-08-06T01:27:26;16.80;99.90
44509;DHT22;30214;52.246;14.408;2023-08-06T01:30:01;16.80;99.90
44509;DHT22;30214;52.246;14.408;2023-08-06T01:32:30;16.80;99.90
44509;DHT22;30214;52.246;14.408;2023-08-06T01:35:00;16.70;99.90
44509;DHT22;30214;52.246;14.408;2023-08-06T01:37:29;16.80;99.90
44509;DHT22;30214;52.246;14.408;2023-08-06T01:39:57;16.80;99.90
44509;DHT22;30214;52.246;14.408;2023-08-06T01:42:24;16.80;99.90
44509;DHT22;30214;52.246;14.408;2023-08-06T01:44:51;16.80;99.90
44509;DHT22;30214;52.246;14.408;2023-08-06T01:47:19;16.80;99.90
44509;DHT22;30214;52.246;14.408;2023-08-06T01:49:46;16.70;99.90
44509;DHT22;30214;52.246;14.408;2023-08-06T01:52:13;16.70;99.90
44509;DHT22;30214;52.246;14.408;2023-08-06T01:54:42;16.60;99.90
44509;DHT22;30214;52.246;14.408;2023-08-06T01:57:10;16.70;99.90
44509;DHT22;30214;52.246;14.408;2023-08-06T01:59:37;16.70;99.90
44509;DHT22;30214;52.246;14.408;2023-08-06T02:02:04;16.70;99.90
44509;DHT22;30214;52.246;14.408;2023-08-06T02:04:31;16.60;99.90
44509;DHT22;30214;52.246;14.408;2023-08-06T02:06:58;16.50;99.90
44509;DHT22;30214;52.246;14.408;2023-08-06T02:09:26;16.60;99.90
44509;DHT22;30214;52.246;14.408;2023-08-06T02:11:56;16.60;99.90
44509;DHT22;30214;52.246;14.408;2023-08-06T02:14:24;16.60;99.90
44509;DHT22;30214;52.246;14.408;2023-08-06T02:16:51;16.70;99.90
44509;DHT22;30214;52.246;14.408;2023-08-06T02:19:18;16.70;99.90
44509;DHT22;30214;52.246;14.408;2023-08-06T02:21:46;16.70;99.90
44509;DHT22;30214;52.246;14.408;2023-08-06T02:24:13;16.70;99.90
44509;DHT22;30214;52.246;14.408;2023-08-06T02:26:40;16.70;99.90
44509;DHT22;30214;52.246;14.408;2023-08-06T02:29:09;16.70;99.90
44509;DHT22;30214;52.246;14.408;2023-08-06T02:31:43;16.60;99.90
44509;DHT22;30214;52.246;14.408;2023-08-06T02:34:12;16.60;99.90
44509;DHT22;30214;52.246;14.408;2023-08-06T02:36:39;16.60;99.90
44509;DHT22;30214;52.246;14.408;2023-08-06T02:39:06;16.60;99.90
44509;DHT22;30214;52.246;14.408;2023-08-06T02:41:34;16.60;99.90
44509;DHT22;30214;52.246;14.408;2023-08-06T02:44:01;16.50;99.90
44509;DHT22;30214;52.246;14.408;2023-08-06T02:46:30;16.60;99.90
44509;DHT22;30214;52.246;14.408;2023-08-06T02:48:57;16.60;99.90
44509;DHT22;30214;52.246;14.408;2023-08-06T02:51:24;16.60;99.90
44509;DHT22;30214;52.246;14.408;2023-08-06T02:53:51;16.50;99.90
44509;DHT22;30214;52.246;14.408;2023-08-06T02:56:21;16.50;99.90
44509;DHT22;30214;52.246;14.408;2023-08-06T02:59:03;16.50;99.90
44509;DHT22;30214;52.246;14.408;2023-08-06T03:01:49;16.50;99.90
44509;DHT22;30214;52.246;14.408;2023-08-06T03:04:23;16.60;99.90
44509;DHT22;30214;52.246;14.408;2023-08-06T03:06:51;16.50;99.90
44509;DHT22;30214;52.246;14.408;2023-08-06T03:09:22;16.50;99.90
44509;DHT22;30214;52.246;14.408;2023-08-06T03:11:52;16.40;99.90
44509;DHT22;30214;52.246;14.408;2023-08-06T03:14:19;16.40;99.90
44509;DHT22;30214;52.246;14.408;2023-08-06T03:16:46;16.40;99.90
44509;DHT22;30214;52.246;14.408;2023-08-06T03:19:17;16.30;99.90
44509;DHT22;30214;52.246;14.408;2023-08-06T03:21:45;16.30;99.90
44509;DHT22;30214;52.246;14.408;2023-08-06T03:24:14;16.30;99.90
44509;DHT22;30214;52.246;14.408;2023-08-06T03:26:42;16.30;99.90
44509;DHT22;30214;52.246;14.408;2023-08-06T03:29:12;16.30;99.90
44509;DHT22;30214;52.246;14.408;2023-08-06T03:31:40;16.20;99.90
44509;DHT22;30214;52.246;14.408;2023-08-06T03:34:07;16.20;99.90
44509;DHT22;30214;52.246;14.408;2023-08-06T03:36:36;16.20;99.90
44509;DHT22;30214;52.246;14.408;2023-08-06T03:39:03;16.30;99.90
44509;DHT22;30214;52.246;14.408;2023-08-06T03:41:31;16.20;99.90
44509;DHT22;30214;52.246;14.408;2023-08-06T03:43:59;16.20;99.90
44509;DHT22;30214;52.246;14.408;2023-08-06T03:46:28;16.30;99.90
44509;DHT22;30214;52.246;14.408;2023-08-06T03:48:55;16.30;99.90
44509;DHT22;30214;52.246;14.408;2023-08-06T03:51:23;16.30;99.90
44509;DHT22;30214;52.246;14.408;2023-08-06T03:53:55;16.30;99.90
44509;DHT22;30214;52.246;14.408;2023-08-06T03:56:22;16.20;99.90
44509;DHT22;30214;52.246;14.408;2023-08-06T03:58:50;16.20;99.90
44509;DHT22;30214;52.246;14.408;2023-08-06T04:01:17;16.20;99.90
44509;DHT22;30214;52.246;14.408;2023-08-06T04:03:46;16.20;99.90
44509;DHT22;30214;52.246;14.408;2023-08-06T04:06:13;16.20;99.90
44509;DHT22;30214;52.246;14.408;2023-08-06T04:08:41;16.20;99.90
44509;DHT22;30214;52.246;14.408;2023-08-06T04:11:09;16.30;99.90
44509;DHT22;30214;52.246;14.408;2023-08-06T04:13:42;16.20;99.90
44509;DHT22;30214;52.246;14.408;2023-08-06T04:16:09;16.20;99.90
44509;DHT22;30214;52.246;14.408;2023-08-06T04:18:37;16.30;99.90
44509;DHT22;30214;52.246;14.408;2023-08-06T04:21:04;16.30;99.90
44509;DHT22;30214;52.246;14.408;2023-08-06T04:23:31;16.20;99.90
44509;DHT22;30214;52.246;14.408;2023-08-06T04:26:04;16.20;99.90
44509;DHT22;30214;52.246;14.408;2023-08-06T04:28:35;16.20;99.90
44509;DHT22;30214;52.246;14.408;2023-08-06T04:31:02;16.30;99.90
44509;DHT22;30214;52.246;14.408;2023-08-06T04:33:32;16.30;99.90
44509;DHT22;30214;52.246;14.408;2023-08-06T04:36:04;16.30;99.90
44509;DHT22;30214;52.246;14.408;2023-08-06T04:38:32;16.20;99.90
44509;DHT22;30214;52.246;14.408;2023-08-06T04:41:01;16.20;99.90
44509;DHT22;30214;52.246;14.408;2023-08-06T04:43:28;16.20;99.90
44509;DHT22;30214;52.246;14.408;2023-08-06T04:45:57;16.20;99.90
44509;DHT22;30214;52.246;14.408;2023-08-06T04:48:24;16.20;99.90
44509;DHT22;30214;52.246;14.408;2023-08-06T04:50:52;16.20;99.90
44509;DHT22;30214;52.246;14.408;2023-08-06T04:53:20;16.20;99.90
44509;DHT22;30214;52.246;14.408;2023-08-06T04:55:47;16.20;99.90
44509;DHT22;30214;52.246;14.408;2023-08-06T04:58:14;16.20;99.90
44509;DHT22;30214;52.246;14.408;2023-08-06T05:00:42;16.10;99.90
44509;DHT22;30214;52.246;14.408;2023-08-06T05:03:10;16.20;99.90
44509;DHT22;30214;52.246;14.408;2023-08-06T05:05:40;16.20;99.90
44509;DHT22;30214;52.246;14.408;2023-08-06T05:08:07;16.20;99.90
44509;DHT22;30214;52.246;14.408;2023-08-06T05:10:34;16.20;99.90
44509;DHT22;30214;52.246;14.408;2023-08-06T05:13:01;16.20;99.90
44509;DHT22;30214;52.246;14.408;2023-08-06T05:15:28;16.20;99.90
44509;DHT22;30214;52.246;14.408;2023-08-06T05:17:56;16.30;99.90
44509;DHT22;30214;52.246;14.408;2023-08-06T05:20:24;16.30;99.90
44509;DHT22;30214;52.246;14.408;2023-08-06T05:22:52;16.30;99.90
44509;DHT22;30214;52.246;14.408;2023-08-06T05:25:19;16.30;99.90
44509;DHT22;30214;52.246;14.408;2023-08-06T05:27:47;16.30;99.90
44509;DHT22;30214;52.246;14.408;2023-08-06T05:30:14;16.30;99.90
44509;DHT22;30214;52.246;14.408;2023-08-06T05:32:41;16.30;99.90
44509;DHT22;30214;52.246;14.408;2023-08-06T05:35:08;16.30;99.90
44509;DHT22;30214;52.246;14.408;2023-08-06T05:37:37;16.30;99.90
44509;DHT22;30214;52.246;14.408;2023-08-06T05:40:05;16.20;99.90
44509;DHT22;30214;52.246;14.408;2023-08-06T05:42:32;16.20;99.90
44509;DHT22;30214;52.246;14.408;2023-08-06T05:44:59;16.20;99.90
44509;DHT22;30214;52.246;14.408;2023-08-06T05:47:26;16.20;99.90
44509;DHT22;30214;52.246;14.408;2023-08-06T05:49:53;16.20;99.90
44509;DHT22;30214;52.246;14.408;2023-08-06T05:52:20;16.20;99.90
44509;DHT22;30214;52.246;14.408;2023-08-06T05:54:48;16.30;99.90
44509;DHT22;30214;52.246;14.408;2023-08-06T05:57:15;16.30;99.90
44509;DHT22;30214;52.246;14.408;2023-08-06T05:59:42;16.30;99.90
44509;DHT22;30214;52.246;14.408;2023-08-06T06:02:09;16.30;99.90
44509;DHT22;30214;52.246;14.408;2023-08-06T06:04:37;16.30;99.90
44509;DHT22;30214;52.246;14.408;2023-08-06T06:07:04;16.30;99.90
44509;DHT22;30214;52.246;14.408;2023-08-06T06:09:31;16.20;99.90
44509;DHT22;30214;52.246;14.408;2023-08-06T06:11:59;16.20;99.90
44509;DHT22;30214;52.246;14.408;2023-08-06T06:14:26;16.30;99.90
44509;DHT22;30214;52.246;14.408;2023-08-06T06:16:53;16.30;99.90
44509;DHT22;30214;52.246;14.408;2023-08-06T06:19:20;16.30;99.90
44509;DHT22;30214;52.246;14.408;2023-08-06T06:21:47;16.30;99.90
44509;DHT22;30214;52.246;14.408;2023-08-06T06:24:14;16.20;99.90
44509;DHT22;30214;52.246;14.408;2023-08-06T06:26:42;16.20;99.90
44509;DHT22;30214;52.246;14.408;2023-08-06T06:29:10;16.30;99.90
44509;DHT22;30214;52.246;14.408;2023-08-06T06:31:37;16.20;99.90
44509;DHT22;30214;52.246;14.408;2023-08-06T06:34:04;16.20;99.90
44509;DHT22;30214;52.246;14.408;2023-08-06T06:36:31;16.30;99.90
44509;DHT22;30214;52.246;14.408;2023-08-06T06:38:58;16.30;99.90
44509;DHT22;30214;52.246;14.408;2023-08-06T06:41:25;16.30;99.90
44509;DHT22;30214;52.246;14.408;2023-08-06T06:43:52;16.40;99.90
44509;DHT22;30214;52.246;14.408;2023-08-06T06:46:20;16.40;99.90
44509;DHT22;30214;52.246;14.408;2023-08-06T06:48:47;16.50;99.90
44509;DHT22;30214;52.246;14.408;2023-08-06T06:51:14;16.50;99.90
44509;DHT22;30214;52.246;14.408;2023-08-06T06:53:41;16.60;99.90
44509;DHT22;30214;52.246;14.408;2023-08-06T06:56:09;16.60;99.90
44509;DHT22;30214;52.246;14.408;2023-08-06T06:58:36;16.60;99.90
44509;DHT22;30214;52.246;14.408;2023-08-06T07:01:04;16.60;99.90
44509;DHT22;30214;52.246;14.408;2023-08-06T07:03:32;16.60;99.90
44509;DHT22;30214;52.246;14.408;2023-08-06T07:05:59;16.60;99.90
44509;DHT22;30214;52.246;14.408;2023-08-06T07:08:27;16.60;99.90
44509;DHT22;30214;52.246;14.408;2023-08-06T07:11:00;16.60;99.90
44509;DHT22;30214;52.246;14.408;2023-08-06T07:13:28;16.60;99.90
44509;DHT22;30214;52.246;14.408;2023-08-06T07:15:55;16.60;99.90
44509;DHT22;30214;52.246;14.408;2023-08-06T07:18:23;16.60;99.90
44509;DHT22;30214;52.246;14.408;2023-08-06T07:20:52;16.70;99.90
44509;DHT22;30214;52.246;14.408;2023-08-06T07:23:21;16.70;99.90
44509;DHT22;30214;52.246;14.408;2023-08-06T07:25:48;16.70;99.90
44509;DHT22;30214;52.246;14.408;2023-08-06T07:28:15;16.60;99.90
44509;DHT22;30214;52.246;14.408;2023-08-06T07:30:43;16.60;99.90
44509;DHT22;30214;52.246;14.408;2023-08-06T07:33:11;16.60;99.90
44509;DHT22;30214;52.246;14.408;2023-08-06T07:35:39;16.60;99.90
44509;DHT22;30214;52.246;14.408;2023-08-06T07:38:07;16.60;99.90
44509;DHT22;30214;52.246;14.408;2023-08-06T07:40:35;16.70;99.90
44509;DHT22;30214;52.246;14.408;2023-08-06T07:43:03;16.70;99.90
44509;DHT22;30214;52.246;14.408;2023-08-06T07:45:33;16.60;99.90
44509;DHT22;30214;52.246;14.408;2023-08-06T07:48:01;16.60;99.90
44509;DHT22;30214;52.246;14.408;2023-08-06T07:50:28;16.70;99.90
44509;DHT22;30214;52.246;14.408;2023-08-06T07:52:55;16.70;99.90
44509;DHT22;30214;52.246;14.408;2023-08-06T07:55:23;16.70;99.90
44509;DHT22;30214;52.246;14.408;2023-08-06T07:57:50;16.70;99.90
44509;DHT22;30214;52.246;14.408;2023-08-06T08:00:17;16.80;99.90
44509;DHT22;30214;52.246;14.408;2023-08-06T08:02:44;16.80;99.90
44509;DHT22;30214;52.246;14.408;2023-08-06T08:05:13;16.80;99.90
44509;DHT22;30214;52.246;14.408;2023-08-06T08:07:40;16.90;99.90
44509;DHT22;30214;52.246;14.408;2023-08-06T08:10:07;16.90;99.90
44509;DHT22;30214;52.246;14.408;2023-08-06T08:12:36;16.90;99.90
44509;DHT22;30214;52.246;14.408;2023-08-06T08:15:04;16.90;99.90
44509;DHT22;30214;52.246;14.408;2023-08-06T08:17:31;16.90;99.90
44509;DHT22;30214;52.246;14.408;2023-08-06T08:20:00;16.90;99.90
44509;DHT22;30214;52.246;14.408;2023-08-06T08:22:27;17.00;99.90
44509;DHT22;30214;52.246;14.408;2023-08-06T08:24:54;17.00;99.90
44509;DHT22;30214;52.246;14.408;2023-08-06T08:27:21;17.10;99.90
44509;DHT22;30214;52.246;14.408;2023-08-06T08:29:49;17.10;99.90
44509;DHT22;30214;52.246;14.408;2023-08-06T08:32:16;17.10;99.90
44509;DHT22;30214;52.246;14.408;2023-08-06T08:34:43;17.10;99.90
44509;DHT22;30214;52.246;14.408;2023-08-06T08:37:10;17.10;99.90
44509;DHT22;30214;52.246;14.408;2023-08-06T08:39:37;17.10;99.90
44509;DHT22;30214;52.246;14.408;2023-08-06T08:42:07;17.10;99.90
44509;DHT22;30214;52.246;14.408;2023-08-06T08:44:36;17.10;99.90
44509;DHT22;30214;52.246;14.408;2023-08-06T08:47:13;17.10;99.90
44509;DHT22;30214;52.246;14.408;2023-08-06T08:49:42;17.20;99.90
44509;DHT22;30214;52.246;14.408;2023-08-06T08:52:11;17.20;99.90
44509;DHT22;30214;52.246;14.408;2023-08-06T08:54:38;17.20;99.90
44509;DHT22;30214;52.246;14.408;2023-08-06T08:57:06;17.20;99.90
44509;DHT22;30214;52.246;14.408;2023-08-06T08:59:33;17.20;99.90
44509;DHT22;30214;52.246;14.408;2023-08-06T09:02:01;17.10;99.90
44509;DHT22;30214;52.246;14.408;2023-08-06T09:04:30;17.10;99.90
44509;DHT22;30214;52.246;14.408;2023-08-06T09:06:58;17.20;99.90
44509;DHT22;30214;52.246;14.408;2023-08-06T09:09:28;17.30;99.90
44509;DHT22;30214;52.246;14.408;2023-08-06T09:12:00;17.30;99.90
44509;DHT22;30214;52.246;14.408;2023-08-06T09:14:28;17.30;99.90
44509;DHT22;30214;52.246;14.408;2023-08-06T09:16:56;17.30;99.90
44509;DHT22;30214;52.246;14.408;2023-08-06T09:19:23;17.30;99.90
44509;DHT22;30214;52.246;14.408;2023-08-06T09:21:52;17.30;99.90
44509;DHT22;30214;52.246;14.408;2023-08-06T09:24:20;17.40;99.90
44509;DHT22;30214;52.246;14.408;2023-08-06T09:26:47;17.40;99.90
44509;DHT22;30214;52.246;14.408;2023-08-06T09:29:14;17.40;99.90
44509;DHT22;30214;52.246;14.408;2023-08-06T09:31:42;17.50;99.90
44509;DHT22;30214;52.246;14.408;2023-08-06T09:34:15;17.60;99.90
44509;DHT22;30214;52.246;14.408;2023-08-06T09:36:43;17.60;99.90
44509;DHT22;30214;52.246;14.408;2023-08-06T09:39:14;17.70;99.90
44509;DHT22;30214;52.246;14.408;2023-08-06T09:41:42;17.70;99.90
44509;DHT22;30214;52.246;14.408;2023-08-06T09:44:16;17.70;99.90
44509;DHT22;30214;52.246;14.408;2023-08-06T09:46:47;17.70;99.90
44509;DHT22;30214;52.246;14.408;2023-08-06T09:49:14;17.80;99.90
44509;DHT22;30214;52.246;14.408;2023-08-06T09:51:42;17.80;99.90
44509;DHT22;30214;52.246;14.408;2023-08-06T09:54:13;17.70;99.90
44509;DHT22;30214;52.246;14.408;2023-08-06T09:56:42;17.80;99.90
44509;DHT22;30214;52.246;14.408;2023-08-06T09:59:12;17.80;99.90
44509;DHT22;30214;52.246;14.408;2023-08-06T10:01:42;17.80;99.90
44509;DHT22;30214;52.246;14.408;2023-08-06T10:04:10;17.80;99.90
44509;DHT22;30214;52.246;14.408;2023-08-06T10:06:38;17.80;99.90
44509;DHT22;30214;52.246;14.408;2023-08-06T10:09:05;17.80;99.90
44509;DHT22;30214;52.246;14.408;2023-08-06T10:11:33;17.80;99.90
44509;DHT22;30214;52.246;14.408;2023-08-06T10:14:04;17.80;99.90
44509;DHT22;30214;52.246;14.408;2023-08-06T10:16:32;17.80;99.90
44509;DHT22;30214;52.246;14.408;2023-08-06T10:19:01;17.80;99.90
44509;DHT22;30214;52.246;14.408;2023-08-06T10:21:28;17.80;99.90
44509;DHT22;30214;52.246;14.408;2023-08-06T10:23:58;17.70;99.90
44509;DHT22;30214;52.246;14.408;2023-08-06T10:26:28;17.70;99.90
44509;DHT22;30214;52.246;14.408;2023-08-06T10:28:56;17.70;99.90
44509;DHT22;30214;52.246;14.408;2023-08-06T10:31:54;17.60;99.90
44509;DHT22;30214;52.246;14.408;2023-08-06T10:34:21;17.60;99.90
44509;DHT22;30214;52.246;14.408;2023-08-06T10:36:48;17.60;99.90
44509;DHT22;30214;52.246;14.408;2023-08-06T10:39:15;17.60;99.90
44509;DHT22;30214;52.246;14.408;2023-08-06T10:41:43;17.80;99.90
44509;DHT22;30214;52.246;14.408;2023-08-06T10:44:11;17.80;99.90
44509;DHT22;30214;52.246;14.408;2023-08-06T10:46:38;17.80;99.90
44509;DHT22;30214;52.246;14.408;2023-08-06T10:49:06;18.00;99.90
44509;DHT22;30214;52.246;14.408;2023-08-06T10:51:33;18.20;99.90
44509;DHT22;30214;52.246;14.408;2023-08-06T10:54:00;18.20;99.90
44509;DHT22;30214;52.246;14.408;2023-08-06T10:56:27;18.20;99.90
44509;DHT22;30214;52.246;14.408;2023-08-06T10:58:54;18.20;99.90
44509;DHT22;30214;52.246;14.408;2023-08-06T11:01:30;18.10;99.90
44509;DHT22;30214;52.246;14.408;2023-08-06T11:04:01;18.10;99.90
44509;DHT22;30214;52.246;14.408;2023-08-06T11:06:30;18.20;99.90
44509;DHT22;30214;52.246;14.408;2023-08-06T11:08:57;18.30;99.90
44509;DHT22;30214;52.246;14.408;2023-08-06T11:11:24;18.40;99.90
44509;DHT22;30214;52.246;14.408;2023-08-06T11:13:52;18.40;99.90
44509;DHT22;30214;52.246;14.408;2023-08-06T11:16:20;18.30;99.90
44509;DHT22;30214;52.246;14.408;2023-08-06T11:18:50;18.20;99.90
44509;DHT22;30214;52.246;14.408;2023-08-06T11:21:19;18.30;99.90
44509;DHT22;30214;52.246;14.408;2023-08-06T11:23:46;18.20;99.90
44509;DHT22;30214;52.246;14.408;2023-08-06T11:26:18;18.20;99.90
44509;DHT22;30214;52.246;14.408;2023-08-06T11:28:46;18.30;99.90
44509;DHT22;30214;52.246;14.408;2023-08-06T11:31:19;18.30;99.90
44509;DHT22;30214;52.246;14.408;2023-08-06T11:33:46;18.20;99.90
44509;DHT22;30214;52.246;14.408;2023-08-06T11:36:28;18.20;99.90
44509;DHT22;30214;52.246;14.408;2023-08-06T11:38:55;18.20;99.90
44509;DHT22;30214;52.246;14.408;2023-08-06T11:41:23;18.20;99.90
44509;DHT22;30214;52.246;14.408;2023-08-06T11:43:50;18.30;99.90
44509;DHT22;30214;52.246;14.408;2023-08-06T11:46:18;18.40;99.90
44509;DHT22;30214;52.246;14.408;2023-08-06T11:48:51;18.40;99.90
44509;DHT22;30214;52.246;14.408;2023-08-06T11:51:22;18.40;99.90
44509;DHT22;30214;52.246;14.408;2023-08-06T11:53:55;18.40;99.90
44509;DHT22;30214;52.246;14.408;2023-08-06T11:56:22;18.40;99.90
44509;DHT22;30214;52.246;14.408;2023-08-06T11:58:49;18.30;99.90
44509;DHT22;30214;52.246;14.408;2023-08-06T12:01:16;18.20;99.90
44509;DHT22;30214;52.246;14.408;2023-08-06T12:03:44;18.30;99.90
44509;DHT22;30214;52.246;14.408;2023-08-06T12:06:11;18.20;99.90
44509;DHT22;30214;52.246;14.408;2023-08-06T12:08:40;18.20;99.90
44509;DHT22;30214;52.246;14.408;2023-08-06T12:11:08;18.20;99.90
44509;DHT22;30214;52.246;14.408;2023-08-06T12:13:35;18.20;99.90
44509;DHT22;30214;52.246;14.408;2023-08-06T12:16:02;18.10;99.90
44509;DHT22;30214;52.246;14.408;2023-08-06T12:18:29;18.10;99.90
44509;DHT22;30214;52.246;14.408;2023-08-06T12:20:56;18.10;99.90
44509;DHT22;30214;52.246;14.408;2023-08-06T12:23:24;18.10;99.90
44509;DHT22;30214;52.246;14.408;2023-08-06T12:25:53;18.10;99.90
44509;DHT22;30214;52.246;14.408;2023-08-06T12:28:21;18.10;99.90
44509;DHT22;30214;52.246;14.408;2023-08-06T12:30:48;18.00;99.90
44509;DHT22;30214;52.246;14.408;2023-08-06T12:33:18;18.00;99.90
44509;DHT22;30214;52.246;14.408;2023-08-06T12:35:46;17.90;99.90
44509;DHT22;30214;52.246;14.408;2023-08-06T12:38:13;17.80;99.90
44509;DHT22;30214;52.246;14.408;2023-08-06T12:40:40;17.80;99.90
44509;DHT22;30214;52.246;14.408;2023-08-06T12:43:08;17.80;99.90
44509;DHT22;30214;52.246;14.408;2023-08-06T12:45:35;17.70;99.90
44509;DHT22;30214;52.246;14.408;2023-08-06T12:48:02;17.70;99.90
44509;DHT22;30214;52.246;14.408;2023-08-06T12:50:29;17.70;99.90
44509;DHT22;30214;52.246;14.408;2023-08-06T12:52:58;17.70;99.90
44509;DHT22;30214;52.246;14.408;2023-08-06T12:55:25;17.70;99.90
44509;DHT22;30214;52.246;14.408;2023-08-06T12:57:53;17.70;99.90
44509;DHT22;30214;52.246;14.408;2023-08-06T13:00:21;17.70;99.90
44509;DHT22;30214;52.246;14.408;2023-08-06T13:02:51;17.70;99.90
44509;DHT22;30214;52.246;14.408;2023-08-06T13:05:20;17.60;99.90
44509;DHT22;30214;52.246;14.408;2023-08-06T13:07:48;17.60;99.90
44509;DHT22;30214;52.246;14.408;2023-08-06T13:10:16;17.60;99.90
44509;DHT22;30214;52.246;14.408;2023-08-06T13:12:44;17.60;99.90
44509;DHT22;30214;52.246;14.408;2023-08-06T13:15:11;17.60;99.90
44509;DHT22;30214;52.246;14.408;2023-08-06T13:17:42;17.60;99.90
44509;DHT22;30214;52.246;14.408;2023-08-06T13:20:10;17.50;99.90
44509;DHT22;30214;52.246;14.408;2023-08-06T13:22:37;17.40;99.90
44509;DHT22;30214;52.246;14.408;2023-08-06T13:25:04;17.50;99.90
44509;DHT22;30214;52.246;14.408;2023-08-06T13:27:32;17.50;99.90
44509;DHT22;30214;52.246;14.408;2023-08-06T13:29:59;17.50;99.90
44509;DHT22;30214;52.246;14.408;2023-08-06T13:32:26;17.50;99.90
44509;DHT22;30214;52.246;14.408;2023-08-06T13:34:54;17.50;99.90
44509;DHT22;30214;52.246;14.408;2023-08-06T13:37:22;17.40;99.90
44509;DHT22;30214;52.246;14.408;2023-08-06T13:39:49;17.40;99.90
44509;DHT22;30214;52.246;14.408;2023-08-06T13:42:17;17.40;99.90
44509;DHT22;30214;52.246;14.408;2023-08-06T13:44:47;17.30;99.90
44509;DHT22;30214;52.246;14.408;2023-08-06T13:47:14;17.30;99.90
44509;DHT22;30214;52.246;14.408;2023-08-06T13:49:41;17.40;99.90
44509;DHT22;30214;52.246;14.408;2023-08-06T13:52:10;17.40;99.90
44509;DHT22;30214;52.246;14.408;2023-08-06T13:54:39;17.40;99.90
44509;DHT22;30214;52.246;14.408;2023-08-06T13:57:06;17.50;99.90
44509;DHT22;30214;52.246;14.408;2023-08-06T13:59:35;17.50;99.90
44509;DHT22;30214;52.246;14.408;2023-08-06T14:02:02;17.50;99.90
44509;DHT22;30214;52.246;14.408;2023-08-06T14:04:29;17.50;99.90
44509;DHT22;30214;52.246;14.408;2023-08-06T14:06:56;17.60;99.90
44509;DHT22;30214;52.246;14.408;2023-08-06T14:09:25;17.60;99.90
44509;DHT22;30214;52.246;14.408;2023-08-06T14:11:52;17.50;99.90
44509;DHT22;30214;52.246;14.408;2023-08-06T14:14:19;17.50;99.90
44509;DHT22;30214;52.246;14.408;2023-08-06T14:16:51;17.50;99.90
44509;DHT22;30214;52.246;14.408;2023-08-06T14:19:19;17.50;99.90
44509;DHT22;30214;52.246;14.408;2023-08-06T14:21:46;17.50;99.90
44509;DHT22;30214;52.246;14.408;2023-08-06T14:24:14;17.60;99.90
44509;DHT22;30214;52.246;14.408;2023-08-06T14:26:43;17.60;99.90
44509;DHT22;30214;52.246;14.408;2023-08-06T14:29:10;17.50;99.90
44509;DHT22;30214;52.246;14.408;2023-08-06T14:31:39;17.50;99.90
44509;DHT22;30214;52.246;14.408;2023-08-06T14:34:06;17.40;99.90
44509;DHT22;30214;52.246;14.408;2023-08-06T14:36:33;17.30;99.90
44509;DHT22;30214;52.246;14.408;2023-08-06T14:39:00;17.30;99.90
44509;DHT22;30214;52.246;14.408;2023-08-06T14:41:27;17.30;99.90
44509;DHT22;30214;52.246;14.408;2023-08-06T14:43:55;17.30;99.90
44509;DHT22;30214;52.246;14.408;2023-08-06T14:46:22;17.10;99.90
44509;DHT22;30214;52.246;14.408;2023-08-06T14:48:49;17.10;99.90
44509;DHT22;30214;52.246;14.408;2023-08-06T14:51:17;17.10;99.90
44509;DHT22;30214;52.246;14.408;2023-08-06T14:53:45;17.10;99.90
44509;DHT22;30214;52.246;14.408;2023-08-06T14:56:11;17.20;99.90
44509;DHT22;30214;52.246;14.408;2023-08-06T14:58:38;17.30;99.90
44509;DHT22;30214;52.246;14.408;2023-08-06T15:01:06;17.30;99.90
44509;DHT22;30214;52.246;14.408;2023-08-06T15:03:33;17.30;99.90
44509;DHT22;30214;52.246;14.408;2023-08-06T15:06:00;17.30;99.90
44509;DHT22;30214;52.246;14.408;2023-08-06T15:08:27;17.30;99.90
44509;DHT22;30214;52.246;14.408;2023-08-06T15:10:54;17.30;99.90
44509;DHT22;30214;52.246;14.408;2023-08-06T15:13:21;17.30;99.90
44509;DHT22;30214;52.246;14.408;2023-08-06T15:15:49;17.40;99.90
44509;DHT22;30214;52.246;14.408;2023-08-06T15:18:17;17.40;99.90
44509;DHT22;30214;52.246;14.408;2023-08-06T15:20:45;17.40;99.90
44509;DHT22;30214;52.246;14.408;2023-08-06T15:23:12;17.50;99.90